Time;durP1;ratioP1;P1;durP2;ratioP2;P2;SDS_P1;SDS_P2;PMS_P1;PMS_P2;Temp;Humidity;BMP_temperature;BMP_pressure;BME280_temperature;BME280_humidity;BME280_pressure;Samples;Min_cycle;Max_cycle;Signal;HPM_P1;HPM_P2
2022/10/15 00:01:40;;;;;;;33.53;18.38;;;12.50;99.90;;;;;;7407819;19;19966;-88
2022/10/15 00:04:09;;;;;;;32.88;15.15;;;12.50;99.90;;;;;;7407965;19;19923;-88
2022/10/15 00:06:40;;;;;;;31.02;16.50;;;12.50;99.90;;;;;;7408762;19;19921;-89
2022/10/15 00:09:09;;;;;;;28.50;15.02;;;12.50;99.90;;;;;;7412271;19;19921;-89
2022/10/15 00:11:39;;;;;;;27.27;16.05;;;12.50;99.90;;;;;;7408499;19;19918;-88
2022/10/15 00:14:08;;;;;;;37.67;18.13;;;12.50;99.90;;;;;;7408147;19;19974;-88
2022/10/15 00:16:36;;;;;;;31.05;16.67;;;12.50;99.90;;;;;;7406365;19;19925;-88
2022/10/15 00:19:05;;;;;;;37.88;19.25;;;12.50;99.90;;;;;;7406635;19;19931;-89
2022/10/15 00:21:34;;;;;;;39.42;19.20;;;12.50;99.90;;;;;;7411279;19;19946;-88
2022/10/15 00:24:08;;;;;;;37.25;17.88;;;12.50;99.90;;;;;;7407928;19;19931;-88
2022/10/15 00:26:37;;;;;;;30.08;15.52;;;12.60;99.90;;;;;;7407561;19;19974;-88
2022/10/15 00:29:06;;;;;;;32.92;18.58;;;12.50;99.90;;;;;;7408162;19;19914;-88
2022/10/15 00:31:35;;;;;;;38.47;18.77;;;12.50;99.90;;;;;;7406910;19;19918;-88
2022/10/15 00:34:05;;;;;;;33.47;16.75;;;12.50;99.90;;;;;;7407636;19;19919;-88
2022/10/15 00:36:36;;;;;;;32.20;17.98;;;12.50;99.90;;;;;;7407679;19;20331;-88
2022/10/15 00:39:09;;;;;;;39.53;22.02;;;12.60;99.90;;;;;;7406530;19;20011;-88
2022/10/15 00:41:41;;;;;;;29.02;13.27;;;12.50;99.90;;;;;;7407559;19;19919;-88
2022/10/15 00:44:40;;;;;;;29.95;15.60;;;12.50;99.90;;;;;;7407134;19;19926;-88
2022/10/15 00:47:18;;;;;;;30.90;16.20;;;12.60;99.90;;;;;;7407264;19;19966;-88
2022/10/15 00:49:56;;;;;;;26.98;13.75;;;12.50;99.90;;;;;;7411282;19;19925;-87
2022/10/15 00:52:31;;;;;;;28.23;15.13;;;12.60;99.90;;;;;;7407294;19;19910;-88
2022/10/15 00:55:08;;;;;;;36.92;19.95;;;12.50;99.90;;;;;;7404766;19;19918;-89
2022/10/15 00:57:37;;;;;;;31.58;18.27;;;12.50;99.90;;;;;;7407236;19;19931;-88
2022/10/15 01:00:09;;;;;;;33.10;18.10;;;12.60;99.90;;;;;;7405499;19;19919;-88
2022/10/15 01:02:39;;;;;;;34.22;17.77;;;12.60;99.90;;;;;;7406568;19;19998;-88
2022/10/15 01:05:10;;;;;;;32.40;17.30;;;12.60;99.90;;;;;;7407362;19;19988;-88
2022/10/15 01:07:39;;;;;;;34.15;17.52;;;12.60;99.90;;;;;;7406639;19;19998;-88
2022/10/15 01:10:12;;;;;;;33.60;16.42;;;12.60;99.90;;;;;;7406597;19;19934;-88
2022/10/15 01:13:03;;;;;;;24.38;12.80;;;12.60;99.90;;;;;;7404102;19;19918;-88
2022/10/15 01:15:39;;;;;;;33.45;17.20;;;12.60;99.90;;;;;;7406901;19;19915;-88
2022/10/15 01:18:13;;;;;;;38.53;19.30;;;12.60;99.90;;;;;;7407174;19;19944;-89
2022/10/15 01:20:55;;;;;;;34.53;17.50;;;12.60;99.90;;;;;;7408455;19;19925;-88
2022/10/15 01:24:01;;;;;;;32.90;19.40;;;12.60;99.90;;;;;;7406826;19;19946;-88
2022/10/15 01:27:00;;;;;;;39.72;20.13;;;12.60;99.90;;;;;;7406288;19;19915;-88
2022/10/15 01:30:04;;;;;;;36.97;18.27;;;12.60;99.90;;;;;;7406100;19;20255;-88
2022/10/15 01:32:39;;;;;;;29.50;17.13;;;12.60;99.90;;;;;;7404501;19;19922;-88
2022/10/15 01:35:19;;;;;;;38.72;20.88;;;12.60;99.90;;;;;;7406177;19;20344;-89
2022/10/15 01:37:53;;;;;;;35.75;21.50;;;12.60;99.90;;;;;;7406056;19;19982;-89
2022/10/15 01:40:29;;;;;;;32.25;17.25;;;12.60;99.90;;;;;;7404489;19;19911;-88
2022/10/15 01:43:00;;;;;;;39.70;21.00;;;12.60;99.90;;;;;;7405870;19;19914;-88
2022/10/15 01:45:35;;;;;;;37.15;20.25;;;12.70;99.90;;;;;;7405821;19;19917;-88
2022/10/15 01:48:11;;;;;;;33.78;18.05;;;12.60;99.90;;;;;;7407534;19;19998;-88
2022/10/15 01:50:45;;;;;;;33.92;20.25;;;12.60;99.90;;;;;;7405210;19;19948;-89
2022/10/15 01:53:17;;;;;;;33.40;17.85;;;12.60;99.90;;;;;;7405187;19;19918;-88
2022/10/15 01:55:49;;;;;;;38.15;21.17;;;12.60;99.90;;;;;;7405055;19;19913;-88
2022/10/15 01:58:19;;;;;;;39.22;20.75;;;12.60;99.90;;;;;;7405248;19;19918;-88
2022/10/15 02:00:48;;;;;;;;;;;12.60;99.90;;;;;;7405494;19;19947;-88
2022/10/15 02:03:21;;;;;;;34.03;18.55;;;12.60;99.90;;;;;;7405001;19;20376;-88
2022/10/15 02:05:55;;;;;;;29.60;17.35;;;12.60;99.90;;;;;;7405420;19;19915;-89
2022/10/15 02:08:32;;;;;;;38.10;21.45;;;12.60;99.90;;;;;;7405806;19;19918;-88
2022/10/15 02:11:06;;;;;;;36.75;20.73;;;12.60;99.90;;;;;;7403764;19;19935;-88
2022/10/15 02:13:43;;;;;;;36.80;20.75;;;12.60;99.90;;;;;;7404556;19;19938;-88
2022/10/15 02:16:18;;;;;;;37.47;21.60;;;12.60;99.90;;;;;;7404950;19;20380;-89
2022/10/15 02:18:56;;;;;;;35.80;20.85;;;12.60;99.90;;;;;;7408233;19;19926;-88
2022/10/15 02:21:31;;;;;;;39.00;22.38;;;12.60;99.90;;;;;;7405361;19;19942;-88
2022/10/15 02:24:08;;;;;;;33.28;18.52;;;12.60;99.90;;;;;;7403645;19;19976;-88
2022/10/15 02:26:38;;;;;;;36.47;18.77;;;12.60;99.90;;;;;;7403689;19;20259;-88
2022/10/15 02:29:12;;;;;;;38.25;20.15;;;12.50;99.90;;;;;;7404992;19;19914;-88
2022/10/15 02:31:45;;;;;;;33.53;18.95;;;12.60;99.90;;;;;;7403614;19;19918;-89
2022/10/15 02:34:22;;;;;;;34.97;19.17;;;12.50;99.90;;;;;;7402692;19;19936;-88
2022/10/15 02:36:52;;;;;;;43.38;22.73;;;12.50;99.90;;;;;;7404742;19;19926;-88
2022/10/15 02:39:25;;;;;;;40.30;22.73;;;12.50;99.90;;;;;;7403797;19;20330;-88
2022/10/15 02:41:55;;;;;;;30.65;18.38;;;12.50;99.90;;;;;;7404351;19;19922;-88
2022/10/15 02:44:23;;;;;;;39.63;19.75;;;12.50;99.90;;;;;;7403853;19;20323;-88
2022/10/15 02:46:52;;;;;;;40.58;22.45;;;12.50;99.90;;;;;;7405139;19;19918;-88
2022/10/15 02:49:25;;;;;;;36.00;18.23;;;12.50;99.90;;;;;;7403625;19;20346;-88
2022/10/15 02:51:54;;;;;;;46.72;24.90;;;12.50;99.90;;;;;;7403595;19;19982;-88
2022/10/15 02:54:23;;;;;;;36.88;19.85;;;12.50;99.90;;;;;;7402198;19;20340;-88
2022/10/15 02:56:52;;;;;;;45.60;24.08;;;12.50;99.90;;;;;;7403510;19;19929;-88
2022/10/15 02:59:21;;;;;;;39.10;20.83;;;12.50;99.90;;;;;;7401391;19;19926;-88
2022/10/15 03:01:50;;;;;;;33.90;18.15;;;12.40;99.90;;;;;;7402945;19;19915;-88
2022/10/15 03:04:20;;;;;;;41.60;23.55;;;12.50;99.90;;;;;;7403202;19;19914;-88
2022/10/15 03:06:52;;;;;;;31.63;19.08;;;12.50;99.90;;;;;;7403119;19;19929;-88
2022/10/15 03:09:21;;;;;;;44.33;22.88;;;12.50;99.90;;;;;;7403453;19;19918;-88
2022/10/15 03:11:50;;;;;;;40.78;21.98;;;12.50;99.90;;;;;;7402706;19;19990;-88
2022/10/15 03:14:19;;;;;;;36.67;19.25;;;12.50;99.90;;;;;;7402963;19;19925;-88
2022/10/15 03:16:48;;;;;;;41.10;22.65;;;12.50;99.90;;;;;;7405087;19;19946;-88
2022/10/15 03:19:17;;;;;;;38.88;19.95;;;12.40;99.90;;;;;;7402907;19;19918;-88
2022/10/15 03:21:46;;;;;;;47.65;24.67;;;12.40;99.90;;;;;;7402821;19;19989;-89
2022/10/15 03:24:17;;;;;;;42.83;23.27;;;12.40;99.90;;;;;;7402452;19;19915;-89
2022/10/15 03:26:46;;;;;;;26.67;14.48;;;12.40;99.90;;;;;;7402562;19;19918;-88
2022/10/15 03:29:15;;;;;;;41.38;21.73;;;12.40;99.90;;;;;;7402460;19;19946;-88
2022/10/15 03:31:44;;;;;;;43.55;21.88;;;12.40;99.90;;;;;;7401689;19;19974;-88
2022/10/15 03:34:13;;;;;;;46.80;23.05;;;12.40;99.90;;;;;;7402938;19;19951;-88
2022/10/15 03:36:42;;;;;;;40.28;20.13;;;12.40;99.90;;;;;;7408596;19;20342;-88
2022/10/15 03:39:12;;;;;;;43.10;22.55;;;12.40;99.90;;;;;;7409486;19;20344;-89
2022/10/15 03:41:44;;;;;;;39.83;21.60;;;12.40;99.90;;;;;;7408937;19;19915;-88
2022/10/15 03:44:13;;;;;;;45.20;22.00;;;12.40;99.90;;;;;;7409281;19;20245;-88
2022/10/15 03:46:42;;;;;;;41.20;22.60;;;12.40;99.90;;;;;;7406943;19;20329;-89
2022/10/15 03:49:11;;;;;;;41.22;21.77;;;12.40;99.90;;;;;;7412868;19;19915;-88
2022/10/15 03:51:40;;;;;;;41.17;21.05;;;12.40;99.90;;;;;;7408315;19;20348;-88
2022/10/15 03:54:09;;;;;;;41.50;21.83;;;12.40;99.90;;;;;;7406978;19;19915;-88
2022/10/15 03:56:38;;;;;;;37.38;20.40;;;12.40;99.90;;;;;;7408255;19;19918;-88
2022/10/15 03:59:09;;;;;;;37.75;21.60;;;12.40;99.90;;;;;;7408242;19;19931;-88
2022/10/15 04:01:38;;;;;;;41.47;22.38;;;12.50;99.90;;;;;;7403741;19;19915;-88
2022/10/15 04:04:07;;;;;;;37.05;20.33;;;12.60;99.90;;;;;;7408239;19;19942;-87
2022/10/15 04:06:37;;;;;;;46.30;21.17;;;12.50;99.90;;;;;;7408252;19;20276;-88
2022/10/15 04:09:06;;;;;;;32.65;17.55;;;12.50;99.90;;;;;;7408838;19;19918;-89
2022/10/15 04:11:35;;;;;;;37.47;20.48;;;12.50;99.90;;;;;;7408248;19;19926;-89
2022/10/15 04:14:04;;;;;;;42.90;23.10;;;12.50;99.90;;;;;;7407803;19;19925;-89
2022/10/15 04:16:36;;;;;;;40.53;21.58;;;12.50;99.90;;;;;;7412643;19;19927;-88
2022/10/15 04:19:05;;;;;;;36.92;19.35;;;12.50;99.90;;;;;;7409113;19;19925;-88
2022/10/15 04:21:34;;;;;;;43.78;21.75;;;12.50;99.90;;;;;;7406337;19;19982;-88
2022/10/15 04:24:03;;;;;;;42.13;20.98;;;12.50;99.90;;;;;;7408335;19;19911;-89
2022/10/15 04:26:32;;;;;;;39.53;20.85;;;12.40;99.90;;;;;;7407607;19;19970;-88
2022/10/15 04:29:01;;;;;;;39.65;21.27;;;12.40;99.90;;;;;;7408010;19;19910;-88
2022/10/15 04:31:30;;;;;;;47.08;20.23;;;12.40;99.90;;;;;;7407964;19;20245;-86
2022/10/15 04:34:02;;;;;;;44.08;22.20;;;12.40;99.90;;;;;;7407948;19;19922;-86
2022/10/15 04:36:30;;;;;;;35.80;18.63;;;12.40;99.90;;;;;;7407893;19;20274;-88
2022/10/15 04:38:59;;;;;;;38.35;18.67;;;12.40;99.90;;;;;;7407635;19;19942;-88
2022/10/15 04:41:29;;;;;;;35.28;19.20;;;12.40;99.90;;;;;;7407539;19;19919;-89
2022/10/15 04:43:58;;;;;;;;;;;12.40;99.90;;;;;;7409882;19;19914;-88
2022/10/15 04:46:27;;;;;;;32.67;16.17;;;12.40;99.90;;;;;;7406376;19;20271;-89
2022/10/15 04:48:57;;;;;;;36.20;16.15;;;12.40;99.90;;;;;;7407126;19;19946;-88
2022/10/15 04:51:29;;;;;;;45.53;21.30;;;12.40;99.90;;;;;;7407636;19;19919;-88
2022/10/15 04:54:00;;;;;;;35.22;17.35;;;12.40;99.90;;;;;;7405710;19;19930;-88
2022/10/15 04:56:30;;;;;;;45.30;23.08;;;12.40;99.90;;;;;;7406738;19;19919;-88
2022/10/15 04:58:59;;;;;;;32.55;15.15;;;12.40;99.90;;;;;;7406824;19;19935;-88
2022/10/15 05:01:28;;;;;;;42.60;19.88;;;12.40;99.90;;;;;;7405011;19;19925;-87
2022/10/15 05:03:57;;;;;;;38.03;18.55;;;12.40;99.90;;;;;;7407153;19;20349;-88
2022/10/15 05:06:29;;;;;;;39.90;19.08;;;12.40;99.90;;;;;;7406770;19;20479;-88
2022/10/15 05:09:00;;;;;;;42.80;20.02;;;12.40;99.90;;;;;;7406604;19;19985;-88
2022/10/15 05:11:30;;;;;;;36.00;19.55;;;12.40;99.90;;;;;;7406789;19;19946;-88
2022/10/15 05:14:00;;;;;;;37.58;16.65;;;12.40;99.90;;;;;;7406322;19;19918;-88
2022/10/15 05:16:30;;;;;;;49.50;22.23;;;12.30;99.90;;;;;;7410289;19;19921;-88
2022/10/15 05:19:02;;;;;;;38.35;19.45;;;12.30;99.90;;;;;;7407032;19;19925;-88
2022/10/15 05:21:34;;;;;;;45.85;22.13;;;12.30;99.90;;;;;;7404830;19;19919;-88
2022/10/15 05:24:04;;;;;;;45.13;21.50;;;12.20;99.90;;;;;;7406853;19;19937;-88
2022/10/15 05:26:33;;;;;;;49.80;24.17;;;12.20;99.90;;;;;;7405824;19;19911;-88
2022/10/15 05:29:03;;;;;;;46.30;21.90;;;12.20;99.90;;;;;;7406544;19;19922;-88
2022/10/15 05:31:34;;;;;;;45.22;19.77;;;12.20;99.90;;;;;;7406073;19;19915;-88
2022/10/15 05:34:08;;;;;;;37.58;17.20;;;12.20;99.90;;;;;;7406007;19;19919;-88
2022/10/15 05:36:43;;;;;;;51.50;23.27;;;12.10;99.90;;;;;;7405809;19;19921;-88
2022/10/15 05:39:12;;;;;;;47.90;22.17;;;12.20;99.90;;;;;;7406045;19;19974;-87
2022/10/15 05:41:41;;;;;;;;;;;12.20;99.90;;;;;;7406223;19;19938;-88
2022/10/15 05:44:10;;;;;;;44.38;21.00;;;12.10;99.90;;;;;;7405342;19;19918;-88
2022/10/15 05:46:41;;;;;;;41.72;21.55;;;12.20;99.90;;;;;;7410068;19;19939;-88
2022/10/15 05:49:10;;;;;;;40.42;19.95;;;12.20;99.90;;;;;;7405417;19;19925;-87
2022/10/15 05:51:42;;;;;;;46.72;22.50;;;12.20;99.90;;;;;;7405446;19;19917;-88
2022/10/15 05:54:11;;;;;;;49.25;21.48;;;12.20;99.90;;;;;;7403863;19;19914;-88
2022/10/15 05:56:39;;;;;;;48.72;21.02;;;12.20;99.90;;;;;;7405513;19;19922;-88
2022/10/15 05:59:08;;;;;;;46.70;19.70;;;12.10;99.90;;;;;;7403518;19;19922;-88
2022/10/15 06:01:37;;;;;;;42.20;22.10;;;12.10;99.90;;;;;;7404220;19;19927;-88
2022/10/15 06:04:07;;;;;;;42.42;20.20;;;12.10;99.90;;;;;;7405595;19;19911;-88
2022/10/15 06:06:35;;;;;;;42.53;20.35;;;12.10;99.90;;;;;;7405148;19;19921;-88
2022/10/15 06:09:08;;;;;;;49.25;23.30;;;12.10;99.90;;;;;;7405380;19;19946;-88
2022/10/15 06:11:38;;;;;;;41.83;20.48;;;12.10;99.90;;;;;;7404916;19;20268;-88
2022/10/15 06:14:07;;;;;;;41.67;22.02;;;12.10;99.90;;;;;;7405222;19;19915;-88
2022/10/15 06:16:36;;;;;;;39.80;20.88;;;12.10;99.90;;;;;;7408071;19;20613;-88
2022/10/15 06:19:07;;;;;;;41.67;20.27;;;12.10;99.90;;;;;;7404595;19;19922;-88
2022/10/15 06:21:36;;;;;;;43.45;20.95;;;12.20;99.90;;;;;;7403241;19;20559;-88
2022/10/15 06:24:08;;;;;;;43.10;21.08;;;12.20;99.90;;;;;;7404461;19;20400;-88
2022/10/15 06:26:37;;;;;;;35.10;18.33;;;12.20;99.90;;;;;;7404019;19;19911;-87
2022/10/15 06:29:06;;;;;;;40.53;20.33;;;12.20;99.90;;;;;;7402984;19;19925;-87
2022/10/15 06:31:35;;;;;;;42.20;21.30;;;12.20;99.90;;;;;;7403874;19;19970;-87
2022/10/15 06:34:04;;;;;;;41.80;18.63;;;12.20;99.90;;;;;;7403854;19;20357;-88
2022/10/15 06:36:39;;;;;;;48.03;22.48;;;12.20;99.90;;;;;;7404628;19;19923;-88
2022/10/15 06:39:11;;;;;;;46.63;22.95;;;12.20;99.90;;;;;;7403968;19;19927;-88
2022/10/15 06:41:40;;;;;;;47.40;23.60;;;12.20;99.90;;;;;;7402673;19;20335;-88
2022/10/15 06:44:09;;;;;;;44.25;20.42;;;12.20;99.90;;;;;;7407218;19;19927;-87
2022/10/15 06:46:38;;;;;;;50.38;24.13;;;12.20;99.90;;;;;;7404290;19;19914;-86
2022/10/15 06:49:07;;;;;;;47.70;22.45;;;12.20;99.90;;;;;;7404148;19;19982;-88
2022/10/15 06:51:37;;;;;;;47.35;22.08;;;12.20;99.90;;;;;;7402649;19;19919;-88
2022/10/15 06:54:06;;;;;;;43.40;20.83;;;12.20;99.90;;;;;;7402606;19;19918;-88
2022/10/15 06:56:38;;;;;;;43.50;21.00;;;12.20;99.90;;;;;;7402642;19;19922;-88
2022/10/15 06:59:07;;;;;;;36.92;19.15;;;12.20;99.90;;;;;;7403737;19;19919;-87
2022/10/15 07:01:36;;;;;;;28.70;15.50;;;12.20;99.90;;;;;;7402635;19;19915;-88
2022/10/15 07:04:05;;;;;;;43.30;22.45;;;12.30;99.90;;;;;;7403694;19;19926;-88
2022/10/15 07:06:35;;;;;;;37.38;19.67;;;12.30;99.90;;;;;;7403283;19;19927;-88
2022/10/15 07:09:06;;;;;;;42.63;20.42;;;12.40;99.90;;;;;;7404736;19;19982;-87
2022/10/15 07:11:37;;;;;;;42.47;19.23;;;12.40;99.90;;;;;;7409633;19;20359;-88
2022/10/15 07:14:06;;;;;;;45.40;21.88;;;12.50;99.90;;;;;;7412570;19;19990;-88
2022/10/15 07:16:36;;;;;;;42.08;22.00;;;12.50;99.90;;;;;;7410190;19;19915;-88
2022/10/15 07:19:05;;;;;;;35.50;17.98;;;12.60;99.90;;;;;;7409630;19;19942;-88
2022/10/15 07:21:34;;;;;;;43.10;21.13;;;12.60;99.90;;;;;;7408351;19;19918;-88
2022/10/15 07:24:09;;;;;;;37.53;20.00;;;12.70;99.90;;;;;;7409436;19;19915;-87
2022/10/15 07:26:40;;;;;;;45.15;22.52;;;12.70;99.90;;;;;;7409333;19;19911;-88
2022/10/15 07:29:10;;;;;;;43.08;20.73;;;12.70;99.90;;;;;;7407645;19;20260;-88
2022/10/15 07:31:39;;;;;;;43.00;21.52;;;12.70;99.90;;;;;;7408781;19;19922;-88
2022/10/15 07:34:08;;;;;;;31.63;16.45;;;12.80;99.90;;;;;;7408887;19;19911;-88
2022/10/15 07:36:38;;;;;;;38.00;21.42;;;13.40;99.90;;;;;;7408964;19;20321;-88
2022/10/15 07:39:07;;;;;;;25.00;14.27;;;14.10;99.90;;;;;;7409875;19;20340;-88
2022/10/15 07:41:36;;;;;;;30.92;17.73;;;14.70;99.90;;;;;;7408055;19;19918;-87
2022/10/15 07:44:07;;;;;;;30.35;16.73;;;14.60;99.90;;;;;;7412680;19;19918;-88
2022/10/15 07:46:36;;;;;;;34.08;18.10;;;14.30;99.90;;;;;;7409319;19;19918;-88
2022/10/15 07:49:05;;;;;;;38.60;17.55;;;14.10;99.90;;;;;;7409186;19;19984;-88
2022/10/15 07:51:34;;;;;;;31.23;17.35;;;13.90;99.90;;;;;;7409343;19;19940;-88
2022/10/15 07:54:03;;;;;;;40.15;22.48;;;13.90;99.90;;;;;;7407363;19;19922;-88
2022/10/15 07:56:32;;;;;;;34.38;19.00;;;13.80;99.90;;;;;;7406443;19;20372;-88
2022/10/15 07:59:01;;;;;;;43.53;21.48;;;13.60;99.90;;;;;;7408281;19;19931;-89
2022/10/15 08:01:33;;;;;;;39.78;19.77;;;13.60;99.90;;;;;;7407197;19;19911;-89
2022/10/15 08:04:02;;;;;;;43.10;21.52;;;13.60;99.90;;;;;;7409055;19;19919;-89
2022/10/15 08:06:32;;;;;;;39.45;20.15;;;13.60;99.90;;;;;;7408482;19;19915;-89
2022/10/15 08:09:01;;;;;;;25.25;12.20;;;13.50;99.90;;;;;;7408402;19;19922;-88
2022/10/15 08:11:31;;;;;;;42.50;20.30;;;13.60;99.90;;;;;;7408053;19;19921;-88
2022/10/15 08:14:02;;;;;;;37.85;20.00;;;13.60;99.90;;;;;;7412444;19;19922;-88
2022/10/15 08:16:34;;;;;;;33.78;16.40;;;13.70;99.90;;;;;;7408338;19;20252;-88
2022/10/15 08:19:03;;;;;;;36.70;20.10;;;13.70;99.90;;;;;;7408597;19;19910;-88
2022/10/15 08:21:34;;;;;;;36.53;19.55;;;13.70;99.90;;;;;;7406321;19;19915;-88
2022/10/15 08:24:03;;;;;;;33.40;18.73;;;13.80;99.90;;;;;;7405790;19;20257;-88
2022/10/15 08:26:32;;;;;;;35.42;19.73;;;13.80;99.90;;;;;;7407700;19;19915;-89
2022/10/15 08:29:01;;;;;;;37.83;19.27;;;13.90;99.90;;;;;;7407977;19;19935;-88
2022/10/15 08:31:34;;;;;;;39.78;19.02;;;14.00;99.90;;;;;;7407677;19;19938;-89
2022/10/15 08:34:03;;;;;;;27.08;14.45;;;14.20;99.90;;;;;;7407497;19;19927;-89
2022/10/15 08:36:32;;;;;;;21.48;12.68;;;14.30;99.90;;;;;;7407647;19;19926;-89
2022/10/15 08:39:01;;;;;;;25.60;13.25;;;14.40;99.90;;;;;;7407579;19;19934;-89
2022/10/15 08:41:36;;;;;;;23.00;11.55;;;14.60;99.90;;;;;;7406675;19;19918;-89
2022/10/15 08:44:07;;;;;;;33.60;17.35;;;14.70;99.90;;;;;;7410163;19;20278;-89
2022/10/15 08:46:42;;;;;;;29.40;16.50;;;14.90;99.90;;;;;;7407191;19;20555;-89
2022/10/15 08:49:22;;;;;;;30.00;15.48;;;15.00;99.90;;;;;;7406792;19;19929;-89
2022/10/15 08:51:56;;;;;;;26.30;14.90;;;15.00;99.90;;;;;;7405720;19;19919;-88
2022/10/15 08:54:25;;;;;;;18.95;12.30;;;15.10;99.90;;;;;;7405878;19;19926;-89
2022/10/15 08:57:05;;;;;;;27.42;15.68;;;15.10;99.90;;;;;;7407156;19;19922;-87
2022/10/15 08:59:46;;;;;;;24.70;14.75;;;15.20;99.90;;;;;;7406838;19;19925;-88
2022/10/15 09:02:22;;;;;;;21.85;11.80;;;15.30;99.90;;;;;;7405945;19;19939;-89
2022/10/15 09:04:55;;;;;;;;;;;15.40;99.90;;;;;;7409221;19;19919;-89
2022/10/15 09:07:32;;;;;;;28.90;15.38;;;15.40;99.90;;;;;;7406702;19;20241;-89
2022/10/15 09:10:08;;;;;;;20.92;13.13;;;15.50;99.90;;;;;;7406836;19;19926;-89
2022/10/15 09:12:47;;;;;;;28.95;15.38;;;15.50;99.90;;;;;;7410449;19;19910;-88
2022/10/15 09:15:20;;;;;;;25.80;16.13;;;15.60;99.90;;;;;;7410293;19;19926;-88
2022/10/15 09:17:54;;;;;;;21.17;13.68;;;15.60;99.90;;;;;;7406659;19;19921;-88
2022/10/15 09:20:28;;;;;;;24.33;15.25;;;15.60;99.90;;;;;;7406104;19;19925;-88
2022/10/15 09:22:57;;;;;;;27.45;16.33;;;15.60;99.90;;;;;;7404479;19;19915;-89
2022/10/15 09:25:36;;;;;;;22.20;15.07;;;15.60;99.90;;;;;;7405991;19;19918;-89
2022/10/15 09:28:12;;;;;;;24.75;14.95;;;15.60;99.90;;;;;;7406846;19;19987;-89
2022/10/15 09:30:49;;;;;;;28.52;18.85;;;15.70;99.90;;;;;;7406073;19;19970;-89
2022/10/15 09:33:33;;;;;;;24.05;15.35;;;15.80;99.90;;;;;;7401539;19;20337;-88
2022/10/15 09:36:13;;;;;;;13.55;9.00;;;15.90;99.90;;;;;;7404179;19;19914;-89
2022/10/15 09:38:54;;;;;;;25.02;15.30;;;16.00;99.90;;;;;;7406337;19;19918;-89
2022/10/15 09:41:31;;;;;;;22.42;13.60;;;16.00;99.90;;;;;;7405891;19;19928;-89
2022/10/15 09:44:04;;;;;;;17.05;9.82;;;16.00;99.90;;;;;;7405859;19;20257;-89
2022/10/15 09:46:32;;;;;;;28.98;18.73;;;15.90;99.90;;;;;;7406311;19;19911;-88
2022/10/15 09:49:17;;;;;;;25.65;15.82;;;15.80;99.90;;;;;;7405674;19;19938;-89
2022/10/15 09:51:59;;;;;;;15.40;9.30;;;15.80;99.90;;;;;;7405506;19;19914;-89
2022/10/15 09:54:38;;;;;;;22.08;11.55;;;15.80;99.90;;;;;;7404076;19;19911;-89
2022/10/15 09:57:10;;;;;;;30.40;20.10;;;15.90;99.90;;;;;;7405338;19;19923;-88
2022/10/15 09:59:39;;;;;;;25.08;16.60;;;15.90;99.90;;;;;;7405490;19;19919;-88
2022/10/15 10:02:22;;;;;;;26.42;15.32;;;15.80;99.90;;;;;;7404444;19;19919;-88
2022/10/15 10:04:53;;;;;;;;;;;15.70;99.90;;;;;;7408176;19;19918;-89
2022/10/15 10:07:36;;;;;;;20.48;11.50;;;15.70;99.90;;;;;;7405293;19;19915;-89
2022/10/15 10:10:09;;;;;;;18.42;12.40;;;15.60;99.90;;;;;;7405648;19;19918;-89
2022/10/15 10:12:39;;;;;;;33.50;20.85;;;15.60;99.90;;;;;;7404924;19;19917;-89
2022/10/15 10:15:28;;;;;;;15.23;8.15;;;15.60;99.90;;;;;;7405417;19;19919;-89
2022/10/15 10:17:58;;;;;;;15.27;9.23;;;15.60;99.90;;;;;;7405236;19;19919;-89
2022/10/15 10:20:34;;;;;;;31.80;18.85;;;15.60;99.90;;;;;;7405112;19;19915;-89
2022/10/15 10:23:04;;;;;;;25.23;14.80;;;15.60;99.90;;;;;;7403917;19;19979;-89
2022/10/15 10:25:37;;;;;;;25.40;14.50;;;15.60;99.90;;;;;;7404293;19;19911;-88
2022/10/15 10:28:16;;;;;;;18.70;10.95;;;15.60;99.90;;;;;;7403490;19;19925;-88
2022/10/15 10:30:53;;;;;;;20.40;13.35;;;15.70;99.90;;;;;;7404334;19;19957;-88
2022/10/15 10:33:28;;;;;;;14.25;9.02;;;15.60;99.90;;;;;;7402801;19;19929;-89
2022/10/15 10:36:02;;;;;;;21.17;13.13;;;15.60;99.90;;;;;;7404205;19;19914;-88
2022/10/15 10:38:33;;;;;;;25.10;15.23;;;15.50;99.90;;;;;;7404333;19;19930;-88
2022/10/15 10:41:06;;;;;;;20.98;12.15;;;15.40;99.90;;;;;;7406508;19;19922;-89
2022/10/15 10:43:36;;;;;;;25.05;15.80;;;15.30;99.90;;;;;;7401668;19;19922;-88
2022/10/15 10:46:11;;;;;;;13.40;8.02;;;15.30;99.90;;;;;;7403780;19;19926;-89
2022/10/15 10:48:43;;;;;;;22.98;12.75;;;15.30;99.90;;;;;;7404281;19;19957;-88
2022/10/15 10:51:18;;;;;;;26.63;14.25;;;15.20;99.90;;;;;;7403808;19;20012;-88
2022/10/15 10:53:51;;;;;;;21.88;12.70;;;15.20;99.90;;;;;;7402967;19;20248;-88
2022/10/15 10:56:25;;;;;;;20.88;12.93;;;15.20;99.90;;;;;;7402820;19;19929;-88
2022/10/15 10:59:00;;;;;;;18.98;10.55;;;15.20;99.90;;;;;;7403727;19;19922;-89
2022/10/15 11:01:30;;;;;;;17.42;11.02;;;15.10;99.90;;;;;;7403394;19;19907;-87
2022/10/15 11:03:59;;;;;;;20.70;11.75;;;15.10;99.90;;;;;;7401383;19;20301;-88
2022/10/15 11:06:51;;;;;;;22.52;12.70;;;15.00;99.90;;;;;;7403298;19;19980;-89
2022/10/15 11:09:42;;;;;;;21.23;10.93;;;15.00;99.90;;;;;;7404182;19;19918;-89
2022/10/15 11:12:27;;;;;;;20.65;11.90;;;15.00;99.90;;;;;;7403475;19;20258;-89
2022/10/15 11:15:05;;;;;;;18.17;10.60;;;15.00;99.90;;;;;;7403613;19;19942;-89
2022/10/15 11:17:47;;;;;;;20.42;12.68;;;15.00;99.90;;;;;;7402989;19;19977;-88
2022/10/15 11:20:21;;;;;;;22.00;11.90;;;15.10;99.90;;;;;;7403008;19;20319;-88
2022/10/15 11:23:04;;;;;;;21.05;11.70;;;15.20;99.90;;;;;;7400062;19;19932;-89
2022/10/15 11:25:41;;;;;;;27.70;15.38;;;15.20;99.90;;;;;;7402029;19;19994;-89
2022/10/15 11:28:31;;;;;;;26.08;16.40;;;15.30;99.90;;;;;;7402952;19;20404;-89
2022/10/15 11:31:06;;;;;;;20.42;12.25;;;15.40;99.90;;;;;;7402254;19;19935;-88
2022/10/15 11:33:50;;;;;;;23.77;13.25;;;15.40;99.90;;;;;;7400991;19;19919;-88
2022/10/15 11:36:31;;;;;;;15.93;9.93;;;15.50;99.90;;;;;;7402313;19;20358;-88
2022/10/15 11:39:18;;;;;;;21.70;12.95;;;15.70;99.90;;;;;;7403614;19;19946;-88
2022/10/15 11:41:57;;;;;;;20.60;13.10;;;15.80;99.90;;;;;;7400982;19;19915;-88
2022/10/15 11:44:34;;;;;;;15.18;9.57;;;16.00;99.90;;;;;;7401999;19;20388;-89
2022/10/15 11:47:23;;;;;;;18.17;11.95;;;16.10;99.90;;;;;;7402393;19;20711;-89
2022/10/15 11:50:02;;;;;;;10.38;6.03;;;16.10;99.90;;;;;;7402503;19;19915;-89
2022/10/15 11:52:58;;;;;;;11.43;7.03;;;16.10;99.90;;;;;;7401640;19;20423;-89
2022/10/15 11:55:37;;;;;;;14.52;8.85;;;16.10;99.90;;;;;;7401134;19;19915;-90
2022/10/15 11:58:13;;;;;;;13.20;8.93;;;16.20;99.90;;;;;;7408588;19;19942;-89
2022/10/15 12:00:48;;;;;;;14.38;9.63;;;16.20;99.90;;;;;;7408577;19;19915;-88
2022/10/15 12:03:19;;;;;;;14.07;8.27;;;16.20;99.90;;;;;;7406964;19;19915;-88
2022/10/15 12:05:52;;;;;;;13.73;8.00;;;16.10;99.90;;;;;;7408763;19;20312;-88
2022/10/15 12:08:22;;;;;;;13.20;8.63;;;16.20;99.90;;;;;;7408888;19;19934;-89
2022/10/15 12:11:09;;;;;;;11.18;5.82;;;16.10;99.90;;;;;;7408331;19;19927;-89
2022/10/15 12:13:42;;;;;;;12.68;8.45;;;16.20;99.90;;;;;;7408281;19;19929;-89
2022/10/15 12:16:24;;;;;;;10.43;7.13;;;16.20;99.90;;;;;;7408299;19;19974;-88
2022/10/15 12:18:59;;;;;;;13.32;8.10;;;16.20;99.90;;;;;;7408221;19;19919;-89
2022/10/15 12:21:38;;;;;;;13.73;6.93;;;16.20;99.90;;;;;;7408185;19;19914;-89
2022/10/15 12:24:30;;;;;;;10.82;7.00;;;16.20;99.90;;;;;;7405970;19;19990;-89
2022/10/15 12:27:17;;;;;;;11.48;7.80;;;16.20;99.90;;;;;;7407230;19;19915;-88
2022/10/15 12:29:46;;;;;;;11.75;7.97;;;16.20;99.90;;;;;;7407926;19;19926;-88
2022/10/15 12:32:25;;;;;;;11.48;7.07;;;16.10;99.90;;;;;;7406619;19;19926;-89
2022/10/15 12:34:58;;;;;;;10.93;7.22;;;16.10;99.90;;;;;;7407994;19;19914;-89
2022/10/15 12:37:30;;;;;;;9.43;5.00;;;16.10;99.90;;;;;;7408299;19;20272;-89
2022/10/15 12:40:02;;;;;;;13.82;9.00;;;16.10;99.90;;;;;;7407307;19;19918;-88
2022/10/15 12:42:36;;;;;;;9.15;6.30;;;16.10;99.90;;;;;;7406834;19;19925;-88
2022/10/15 12:45:09;;;;;;;9.90;5.38;;;16.10;99.90;;;;;;7407724;19;20331;-89
2022/10/15 12:47:52;;;;;;;14.95;9.90;;;16.20;99.90;;;;;;7407124;19;20268;-88
2022/10/15 12:50:24;;;;;;;8.30;5.70;;;16.30;99.90;;;;;;7405887;19;19930;-88
2022/10/15 12:53:00;;;;;;;10.77;6.57;;;16.40;99.90;;;;;;7406967;19;19914;-89
2022/10/15 12:55:30;;;;;;;;;;;16.50;99.90;;;;;;7408984;19;19986;-88
2022/10/15 12:58:04;;;;;;;8.75;5.05;;;16.50;99.90;;;;;;7407076;19;20327;-88
2022/10/15 13:00:44;;;;;;;8.70;5.25;;;16.50;99.90;;;;;;7407123;19;19918;-89